Time;durP1;ratioP1;P1;durP2;ratioP2;P2;SDS_P1;SDS_P2;PMS_P1;PMS_P2;Temp;Humidity;BMP_temperature;BMP_pressure;BME280_temperature;BME280_humidity;BME280_pressure;Samples;Min_cycle;Max_cycle;Signal;HPM_P1;HPM_P2
2022/04/07 00:06:37;;;;;;;;;0.00;0.00;;;;;;;;2;288083958;288083958;-76
2022/04/07 00:14:53;;;;;;;;;0.00;0.00;;;;;;;;2;261079851;261079851;-77
2022/04/07 00:24:22;;;;;;;;;0.00;0.00;;;;;;;;2;288083643;288083643;-77
2022/04/07 00:32:42;;;;;;;;;0.00;0.00;;;;;;;;2;261074659;261074659;-76
2022/04/07 00:42:09;;;;;;;;;0.00;0.00;;;;;;;;2;288085481;288085481;-77
2022/04/07 00:50:25;;;;;;;;;0.00;0.00;;;;;;;;2;261077569;261077569;-77
2022/04/07 00:59:52;;;;;;;;;0.00;0.00;;;;;;;;2;288085766;288085766;-77
2022/04/07 01:08:09;;;;;;;;;0.00;0.00;;;;;;;;2;261075632;261075632;-77
2022/04/07 01:17:38;;;;;;;;;0.00;0.00;;;;;;;;2;288083206;288083206;-77
2022/04/07 01:25:53;;;;;;;;;0.00;0.00;;;;;;;;2;261074401;261074401;-77
2022/04/07 01:35:24;;;;;;;;;0.00;0.00;;;;;;;;2;288082629;288082629;-79
2022/04/07 01:43:41;;;;;;;;;0.00;0.00;;;;;;;;2;261079322;261079322;-76
2022/04/07 01:53:09;;;;;;;;;0.00;0.00;;;;;;;;2;288084967;288084967;-76
2022/04/07 02:01:24;;;;;;;;;0.00;0.00;;;;;;;;2;261076877;261076877;-77
2022/04/07 02:10:52;;;;;;;;;0.00;0.00;;;;;;;;2;288085213;288085213;-77
2022/04/07 02:19:08;;;;;;;;;0.00;0.00;;;;;;;;2;261080259;261080259;-76
2022/04/07 02:28:35;;;;;;;;;0.00;0.00;;;;;;;;2;288083545;288083545;-76
2022/04/07 02:36:51;;;;;;;;;0.00;0.00;;;;;;;;2;261074284;261074284;-77
2022/04/07 02:46:18;;;;;;;;;0.00;0.00;;;;;;;;2;288088948;288088948;-77
2022/04/07 02:54:34;;;;;;;;;0.00;0.00;;;;;;;;2;261075144;261075144;-77
2022/04/07 03:04:02;;;;;;;;;0.00;0.00;;;;;;;;2;288084939;288084939;-76
2022/04/07 03:12:17;;;;;;;;;0.00;0.00;;;;;;;;2;261078161;261078161;-76
2022/04/07 03:21:45;;;;;;;;;0.00;0.00;;;;;;;;2;288084327;288084327;-76
2022/04/07 03:30:00;;;;;;;;;0.00;0.00;;;;;;;;2;261077875;261077875;-77
2022/04/07 03:39:28;;;;;;;;;0.00;0.00;;;;;;;;2;288083157;288083157;-75
2022/04/07 03:47:44;;;;;;;;;0.00;0.00;;;;;;;;2;261075693;261075693;-78
2022/04/07 03:57:11;;;;;;;;;0.00;0.00;;;;;;;;2;288084508;288084508;-77
2022/04/07 04:05:27;;;;;;;;;0.00;0.00;;;;;;;;2;261077865;261077865;-78
2022/04/07 04:14:54;;;;;;;;;0.00;0.00;;;;;;;;2;288084709;288084709;-77
2022/04/07 04:23:09;;;;;;;;;0.00;0.00;;;;;;;;2;261079691;261079691;-77
2022/04/07 04:32:37;;;;;;;;;0.00;0.00;;;;;;;;2;288082233;288082233;-76
2022/04/07 04:40:52;;;;;;;;;0.00;0.00;;;;;;;;2;261077001;261077001;-77
2022/04/07 04:50:20;;;;;;;;;0.00;0.00;;;;;;;;2;288082459;288082459;-77
2022/04/07 04:58:35;;;;;;;;;0.00;0.00;;;;;;;;2;261078932;261078932;-76
2022/04/07 05:08:03;;;;;;;;;0.00;0.00;;;;;;;;2;288084872;288084872;-76
2022/04/07 05:16:18;;;;;;;;;0.00;0.00;;;;;;;;2;261073773;261073773;-76
2022/04/07 05:25:46;;;;;;;;;0.00;0.00;;;;;;;;2;288083788;288083788;-77
2022/04/07 05:34:02;;;;;;;;;0.00;0.00;;;;;;;;2;261077966;261077966;-76
2022/04/07 05:43:30;;;;;;;;;0.00;0.00;;;;;;;;2;288088213;288088213;-76
2022/04/07 05:51:50;;;;;;;;;0.00;0.00;;;;;;;;2;261077368;261077368;-77
2022/04/07 06:01:18;;;;;;;;;0.00;0.00;;;;;;;;2;288086329;288086329;-77
2022/04/07 06:09:35;;;;;;;;;0.00;0.00;;;;;;;;2;261076924;261076924;-78
2022/04/07 06:19:03;;;;;;;;;0.00;0.00;;;;;;;;2;288084994;288084994;-76
2022/04/07 06:27:18;;;;;;;;;0.00;0.00;;;;;;;;2;261078893;261078893;-77
2022/04/07 06:36:48;;;;;;;;;0.00;0.00;;;;;;;;2;288084749;288084749;-81
2022/04/07 06:45:05;;;;;;;;;0.00;0.00;;;;;;;;2;261078735;261078735;-80
2022/04/07 06:54:32;;;;;;;;;0.00;0.00;;;;;;;;2;288082257;288082257;-77
2022/04/07 07:02:51;;;;;;;;;0.00;0.00;;;;;;;;2;261075896;261075896;-78
2022/04/07 07:12:22;;;;;;;;;0.00;0.00;;;;;;;;2;288084119;288084119;-77
2022/04/07 07:20:38;;;;;;;;;0.00;0.00;;;;;;;;2;261079032;261079032;-82
2022/04/07 07:30:09;;;;;;;;;0.00;0.00;;;;;;;;2;288085581;288085581;-81
2022/04/07 07:38:28;;;;;;;;;0.00;0.00;;;;;;;;2;261073349;261073349;-78
2022/04/07 07:47:56;;;;;;;;;0.00;0.00;;;;;;;;2;288082873;288082873;-77
2022/04/07 07:56:12;;;;;;;;;0.00;0.00;;;;;;;;2;261077546;261077546;-79
2022/04/07 08:05:39;;;;;;;;;0.00;0.00;;;;;;;;2;288095844;288095844;-76
2022/04/07 08:13:55;;;;;;;;;0.00;0.00;;;;;;;;2;261076735;261076735;-77
2022/04/07 08:23:22;;;;;;;;;0.00;0.00;;;;;;;;2;288086130;288086130;-77
2022/04/07 08:31:38;;;;;;;;;0.00;0.00;;;;;;;;2;261076967;261076967;-76
2022/04/07 08:41:09;;;;;;;;;0.00;0.00;;;;;;;;2;288082992;288082992;-75
2022/04/07 08:49:25;;;;;;;;;0.00;0.00;;;;;;;;2;261077026;261077026;-76
2022/04/07 08:58:56;;;;;;;;;0.00;0.00;;;;;;;;2;288084621;288084621;-81
2022/04/07 09:07:12;;;;;;;;;0.00;0.00;;;;;;;;2;261077049;261077049;-77
2022/04/07 09:16:40;;;;;;;;;0.00;0.00;;;;;;;;2;288084605;288084605;-76
2022/04/07 09:24:58;;;;;;;;;0.00;0.00;;;;;;;;2;261074848;261074848;-79
2022/04/07 09:34:30;;;;;;;;;0.00;0.00;;;;;;;;2;288082800;288082800;-78
2022/04/07 09:42:55;;;;;;;;;0.00;0.00;;;;;;;;2;261076889;261076889;-81
2022/04/07 09:52:23;;;;;;;;;0.00;0.00;;;;;;;;2;288084863;288084863;-77
2022/04/07 10:00:39;;;;;;;;;0.00;0.00;;;;;;;;2;261075745;261075745;-80
2022/04/07 10:10:22;;;;;;;;;0.00;0.00;;;;;;;;2;288086868;288086868;-82
2022/04/07 10:19:01;;;;;;;;;0.00;0.00;;;;;;;;2;261075772;261075772;-82
2022/04/07 10:28:49;;;;;;;;;0.00;0.00;;;;;;;;2;288085575;288085575;-83
2022/04/07 10:37:07;;;;;;;;;0.00;0.00;;;;;;;;2;261076712;261076712;-76
2022/04/07 10:46:35;;;;;;;;;0.00;0.00;;;;;;;;2;288084479;288084479;-74
2022/04/07 10:55:10;;;;;;;;;0.00;0.00;;;;;;;;2;261078004;261078004;-77
2022/04/07 11:04:42;;;;;;;;;0.00;0.00;;;;;;;;2;288082129;288082129;-74
2022/04/07 11:13:02;;;;;;;;;0.00;0.00;;;;;;;;2;261077979;261077979;-78
2022/04/07 11:23:01;;;;;;;;;0.00;0.00;;;;;;;;2;288081822;288081822;-74
2022/04/07 11:31:37;;;;;;;;;0.00;0.00;;;;;;;;2;261075047;261075047;-76
2022/04/07 11:41:05;;;;;;;;;0.00;0.00;;;;;;;;2;288084057;288084057;-74
2022/04/07 11:49:22;;;;;;;;;0.00;0.00;;;;;;;;2;261076602;261076602;-75
2022/04/07 11:58:52;;;;;;;;;0.00;0.00;;;;;;;;2;288085743;288085743;-75
2022/04/07 12:07:09;;;;;;;;;0.00;0.00;;;;;;;;2;261078779;261078779;-74
2022/04/07 12:16:47;;;;;;;;;0.00;0.00;;;;;;;;2;288086401;288086401;-74
2022/04/07 12:25:06;;;;;;;;;0.00;0.00;;;;;;;;2;261074874;261074874;-80
2022/04/07 12:34:34;;;;;;;;;0.00;0.00;;;;;;;;2;288085181;288085181;-74
2022/04/07 12:43:00;;;;;;;;;0.00;0.00;;;;;;;;2;261074532;261074532;-74
2022/04/07 12:52:35;;;;;;;;;0.00;0.00;;;;;;;;2;288083741;288083741;-76
2022/04/07 13:00:57;;;;;;;;;0.00;0.00;;;;;;;;2;261075375;261075375;-78
2022/04/07 13:10:26;;;;;;;;;0.00;0.00;;;;;;;;2;288081175;288081175;-77
2022/04/07 13:18:42;;;;;;;;;0.00;0.00;;;;;;;;2;261075567;261075567;-75
2022/04/07 13:28:09;;;;;;;;;0.00;0.00;;;;;;;;2;288083085;288083085;-76
2022/04/07 13:36:25;;;;;;;;;0.00;0.00;;;;;;;;2;261078216;261078216;-76
2022/04/07 13:45:53;;;;;;;;;0.00;0.00;;;;;;;;2;288085809;288085809;-78
2022/04/07 13:54:08;;;;;;;;;0.00;0.00;;;;;;;;2;261077469;261077469;-79
2022/04/07 14:03:37;;;;;;;;;0.00;0.00;;;;;;;;2;288086513;288086513;-76
2022/04/07 14:11:55;;;;;;;;;0.00;0.00;;;;;;;;2;261077278;261077278;-77
2022/04/07 14:21:23;;;;;;;;;0.00;0.00;;;;;;;;2;288085871;288085871;-74
2022/04/07 14:29:38;;;;;;;;;0.00;0.00;;;;;;;;2;261077462;261077462;-77
2022/04/07 14:39:06;;;;;;;;;0.00;0.00;;;;;;;;2;288083498;288083498;-75
2022/04/07 14:47:21;;;;;;;;;0.00;0.00;;;;;;;;2;261077478;261077478;-73
2022/04/07 14:56:49;;;;;;;;;0.00;0.00;;;;;;;;2;288086181;288086181;-76
2022/04/07 15:05:05;;;;;;;;;0.00;0.00;;;;;;;;2;261076740;261076740;-75
2022/04/07 15:14:38;;;;;;;;;0.00;0.00;;;;;;;;2;288085921;288085921;-76
2022/04/07 15:22:54;;;;;;;;;0.00;0.00;;;;;;;;2;261077471;261077471;-77
2022/04/07 15:32:23;;;;;;;;;0.00;0.00;;;;;;;;2;288087283;288087283;-75
2022/04/07 15:40:39;;;;;;;;;0.00;0.00;;;;;;;;2;261078754;261078754;-76
2022/04/07 15:50:07;;;;;;;;;0.00;0.00;;;;;;;;2;288084120;288084120;-76
2022/04/07 15:58:27;;;;;;;;;0.00;0.00;;;;;;;;2;261080696;261080696;-75
2022/04/07 16:07:55;;;;;;;;;0.00;0.00;;;;;;;;2;288086478;288086478;-76
2022/04/07 16:16:10;;;;;;;;;0.00;0.00;;;;;;;;2;261077888;261077888;-76
2022/04/07 16:25:39;;;;;;;;;0.00;0.00;;;;;;;;2;288086649;288086649;-78
2022/04/07 16:33:54;;;;;;;;;0.00;0.00;;;;;;;;2;261079842;261079842;-76
2022/04/07 16:43:22;;;;;;;;;0.00;0.00;;;;;;;;2;288083688;288083688;-76
2022/04/07 16:51:37;;;;;;;;;0.00;0.00;;;;;;;;2;261073770;261073770;-74
2022/04/07 17:04:24;;;;;;;;;0.00;0.00;;;;;;;;2;288083649;288083649;-75
2022/04/07 17:12:41;;;;;;;;;0.00;0.00;;;;;;;;2;261078944;261078944;-74
2022/04/07 17:22:09;;;;;;;;;0.00;0.00;;;;;;;;2;288084471;288084471;-75
2022/04/07 17:30:29;;;;;;;;;0.00;0.00;;;;;;;;2;261076254;261076254;-75
2022/04/07 17:39:56;;;;;;;;;0.00;0.00;;;;;;;;2;288085114;288085114;-75
2022/04/07 17:48:13;;;;;;;;;0.00;0.00;;;;;;;;2;261076180;261076180;-75
2022/04/07 17:57:43;;;;;;;;;0.00;0.00;;;;;;;;2;288084281;288084281;-75
2022/04/07 18:05:58;;;;;;;;;0.00;0.00;;;;;;;;2;261076027;261076027;-75
2022/04/07 18:15:26;;;;;;;;;0.00;0.00;;;;;;;;2;288084833;288084833;-74
2022/04/07 18:23:41;;;;;;;;;0.00;0.00;;;;;;;;2;261077540;261077540;-78
2022/04/07 18:33:09;;;;;;;;;0.00;0.00;;;;;;;;2;288083878;288083878;-81
2022/04/07 18:41:24;;;;;;;;;0.00;0.00;;;;;;;;2;261078953;261078953;-81
2022/04/07 18:50:52;;;;;;;;;0.00;0.00;;;;;;;;2;288085371;288085371;-82
2022/04/07 18:59:07;;;;;;;;;0.00;0.00;;;;;;;;2;261076673;261076673;-80
2022/04/07 19:08:35;;;;;;;;;0.00;0.00;;;;;;;;2;288086292;288086292;-81
2022/04/07 19:16:50;;;;;;;;;0.00;0.00;;;;;;;;2;261075575;261075575;-83
2022/04/07 19:26:18;;;;;;;;;0.00;0.00;;;;;;;;2;288083485;288083485;-83
2022/04/07 19:34:33;;;;;;;;;0.00;0.00;;;;;;;;2;261076474;261076474;-80
2022/04/07 19:44:01;;;;;;;;;0.00;0.00;;;;;;;;2;288085362;288085362;-78
2022/04/07 19:52:21;;;;;;;;;0.00;0.00;;;;;;;;2;261077222;261077222;-80
2022/04/07 20:01:48;;;;;;;;;0.00;0.00;;;;;;;;2;288085209;288085209;-79
2022/04/07 20:10:05;;;;;;;;;0.00;0.00;;;;;;;;2;261078128;261078128;-80
2022/04/07 20:19:33;;;;;;;;;0.00;0.00;;;;;;;;2;288084350;288084350;-81
2022/04/07 20:27:49;;;;;;;;;0.00;0.00;;;;;;;;2;261077078;261077078;-82
2022/04/07 20:37:17;;;;;;;;;0.00;0.00;;;;;;;;2;288083351;288083351;-80
2022/04/07 20:45:33;;;;;;;;;0.00;0.00;;;;;;;;2;261076364;261076364;-80
2022/04/07 20:55:00;;;;;;;;;0.00;0.00;;;;;;;;2;288081827;288081827;-82
2022/04/07 21:03:16;;;;;;;;;0.00;0.00;;;;;;;;2;261075660;261075660;-82
2022/04/07 21:12:47;;;;;;;;;0.00;0.00;;;;;;;;2;288083206;288083206;-82
2022/04/07 21:21:03;;;;;;;;;0.00;0.00;;;;;;;;2;261074104;261074104;-85
2022/04/07 21:30:31;;;;;;;;;0.00;0.00;;;;;;;;2;288085664;288085664;-82
2022/04/07 21:38:46;;;;;;;;;0.00;0.00;;;;;;;;2;261077243;261077243;-83
2022/04/07 21:48:14;;;;;;;;;0.00;0.00;;;;;;;;2;288084316;288084316;-85
2022/04/07 21:56:30;;;;;;;;;0.00;0.00;;;;;;;;2;261076291;261076291;-84
2022/04/07 22:05:57;;;;;;;;;0.00;0.00;;;;;;;;2;288087675;288087675;-81
2022/04/07 22:14:13;;;;;;;;;0.00;0.00;;;;;;;;2;261077215;261077215;-88
2022/04/07 22:23:40;;;;;;;;;0.00;0.00;;;;;;;;2;288085392;288085392;-88
2022/04/07 22:31:56;;;;;;;;;0.00;0.00;;;;;;;;2;261074613;261074613;-81
2022/04/07 22:41:23;;;;;;;;;0.00;0.00;;;;;;;;2;288081743;288081743;-83
2022/04/07 22:49:39;;;;;;;;;0.00;0.00;;;;;;;;2;261077769;261077769;-82
2022/04/07 22:59:06;;;;;;;;;0.00;0.00;;;;;;;;2;288082352;288082352;-81
2022/04/07 23:07:22;;;;;;;;;0.00;0.00;;;;;;;;2;261076140;261076140;-80
2022/04/07 23:16:49;;;;;;;;;0.00;0.00;;;;;;;;2;288080806;288080806;-81
2022/04/07 23:25:05;;;;;;;;;0.00;0.00;;;;;;;;2;261076244;261076244;-80
2022/04/07 23:34:33;;;;;;;;;0.00;0.00;;;;;;;;2;288084764;288084764;-81
2022/04/07 23:42:48;;;;;;;;;0.00;0.00;;;;;;;;2;261078436;261078436;-80
2022/04/07 23:52:16;;;;;;;;;0.00;0.00;;;;;;;;2;288084761;288084761;-81
